sensor_id;sensor_type;location;lat;lon;timestamp;pressure;altitude;pressure_sealevel;temperature;humidity
34328;BME280;20588;48.840;10.064;2023-04-07T00:02:00;96499.25;;;6.96;71.76
34328;BME280;20588;48.840;10.064;2023-04-07T00:04:26;96509.66;;;6.94;71.44
34328;BME280;20588;48.840;10.064;2023-04-07T00:06:52;96507.28;;;6.93;71.37
34328;BME280;20588;48.840;10.064;2023-04-07T00:09:18;96501.56;;;6.91;71.35
34328;BME280;20588;48.840;10.064;2023-04-07T00:11:44;96507.66;;;6.90;71.54
34328;BME280;20588;48.840;10.064;2023-04-07T00:14:10;96506.47;;;6.86;71.44
34328;BME280;20588;48.840;10.064;2023-04-07T00:16:36;96500.19;;;6.88;71.31
34328;BME280;20588;48.840;10.064;2023-04-07T00:19:02;96508.66;;;6.89;71.56
34328;BME280;20588;48.840;10.064;2023-04-07T00:21:28;96504.88;;;6.85;71.96
34328;BME280;20588;48.840;10.064;2023-04-07T00:23:55;96505.25;;;6.82;72.67
34328;BME280;20588;48.840;10.064;2023-04-07T00:26:21;96497.56;;;6.82;72.72
34328;BME280;20588;48.840;10.064;2023-04-07T00:28:48;96495.41;;;6.79;73.13
34328;BME280;20588;48.840;10.064;2023-04-07T00:31:14;96495.75;;;6.76;73.52
34328;BME280;20588;48.840;10.064;2023-04-07T00:33:40;96495.94;;;6.74;73.81
34328;BME280;20588;48.840;10.064;2023-04-07T00:36:06;96489.88;;;6.75;73.97
34328;BME280;20588;48.840;10.064;2023-04-07T00:38:32;96494.56;;;6.72;74.68
34328;BME280;20588;48.840;10.064;2023-04-07T00:40:58;96490.44;;;6.71;75.04
34328;BME280;20588;48.840;10.064;2023-04-07T00:43:25;96488.84;;;6.70;75.35
34328;BME280;20588;48.840;10.064;2023-04-07T00:45:52;96490.19;;;6.66;75.79
34328;BME280;20588;48.840;10.064;2023-04-07T00:48:18;96483.72;;;6.63;76.21
34328;BME280;20588;48.840;10.064;2023-04-07T00:50:45;96485.22;;;6.58;76.45
34328;BME280;20588;48.840;10.064;2023-04-07T00:53:12;96480.84;;;6.52;77.53
34328;BME280;20588;48.840;10.064;2023-04-07T00:55:38;96471.63;;;6.57;77.86
34328;BME280;20588;48.840;10.064;2023-04-07T00:58:04;96473.56;;;6.49;78.14
34328;BME280;20588;48.840;10.064;2023-04-07T01:00:31;96473.72;;;6.47;78.77
34328;BME280;20588;48.840;10.064;2023-04-07T01:03:05;96474.91;;;6.45;79.72
34328;BME280;20588;48.840;10.064;2023-04-07T01:05:49;96471.38;;;6.46;80.57
34328;BME280;20588;48.840;10.064;2023-04-07T01:08:23;96465.28;;;6.47;81.82
34328;BME280;20588;48.840;10.064;2023-04-07T01:11:02;96470.53;;;6.39;82.74
34328;BME280;20588;48.840;10.064;2023-04-07T01:13:37;96467.75;;;6.34;83.95
34328;BME280;20588;48.840;10.064;2023-04-07T01:16:12;96460.00;;;6.27;84.94
34328;BME280;20588;48.840;10.064;2023-04-07T01:18:42;96460.38;;;6.24;85.50
34328;BME280;20588;48.840;10.064;2023-04-07T01:21:14;96452.72;;;6.24;86.36
34328;BME280;20588;48.840;10.064;2023-04-07T01:24:02;96447.91;;;6.36;87.87
34328;BME280;20588;48.840;10.064;2023-04-07T01:26:31;96451.22;;;6.30;88.17
34328;BME280;20588;48.840;10.064;2023-04-07T01:31:27;96443.75;;;6.07;90.35
34328;BME280;20588;48.840;10.064;2023-04-07T01:33:54;96442.13;;;6.00;90.04
34328;BME280;20588;48.840;10.064;2023-04-07T01:36:22;96436.56;;;5.96;90.68
34328;BME280;20588;48.840;10.064;2023-04-07T01:38:50;96437.38;;;5.97;91.22
34328;BME280;20588;48.840;10.064;2023-04-07T01:41:18;96431.72;;;6.01;92.65
34328;BME280;20588;48.840;10.064;2023-04-07T01:43:45;96439.09;;;6.17;93.72
34328;BME280;20588;48.840;10.064;2023-04-07T01:46:12;96429.94;;;6.02;93.00
34328;BME280;20588;48.840;10.064;2023-04-07T01:48:39;96420.22;;;5.91;93.97
34328;BME280;20588;48.840;10.064;2023-04-07T01:51:06;96414.69;;;5.87;93.06
34328;BME280;20588;48.840;10.064;2023-04-07T01:53:33;96415.75;;;5.78;94.02
34328;BME280;20588;48.840;10.064;2023-04-07T01:56:02;96420.19;;;5.70;95.57
34328;BME280;20588;48.840;10.064;2023-04-07T01:58:29;96408.75;;;5.66;96.62
34328;BME280;20588;48.840;10.064;2023-04-07T02:00:55;96420.41;;;5.89;95.30
34328;BME280;20588;48.840;10.064;2023-04-07T02:06:14;96409.66;;;5.58;96.87
34328;BME280;20588;48.840;10.064;2023-04-07T02:08:49;96404.50;;;5.51;97.41
34328;BME280;20588;48.840;10.064;2023-04-07T02:11:19;96409.78;;;5.50;98.24
34328;BME280;20588;48.840;10.064;2023-04-07T02:13:47;96400.63;;;5.55;98.12
34328;BME280;20588;48.840;10.064;2023-04-07T02:16:14;96410.22;;;5.53;98.19
34328;BME280;20588;48.840;10.064;2023-04-07T02:18:43;96402.56;;;5.53;98.41
34328;BME280;20588;48.840;10.064;2023-04-07T02:21:11;96402.56;;;5.53;98.87
34328;BME280;20588;48.840;10.064;2023-04-07T02:23:39;96397.75;;;5.65;99.43
34328;BME280;20588;48.840;10.064;2023-04-07T02:26:06;96400.44;;;5.57;99.30
34328;BME280;20588;48.840;10.064;2023-04-07T02:28:32;96396.84;;;5.51;100.00
34328;BME280;20588;48.840;10.064;2023-04-07T02:30:58;96396.84;;;5.51;100.00
34328;BME280;20588;48.840;10.064;2023-04-07T02:33:24;96385.50;;;5.54;100.00
34328;BME280;20588;48.840;10.064;2023-04-07T02:35:50;96385.50;;;5.54;100.00
34328;BME280;20588;48.840;10.064;2023-04-07T02:38:16;96377.59;;;5.49;100.00
34328;BME280;20588;48.840;10.064;2023-04-07T02:40:42;96376.44;;;5.51;100.00
34328;BME280;20588;48.840;10.064;2023-04-07T02:43:08;96367.38;;;5.49;100.00
34328;BME280;20588;48.840;10.064;2023-04-07T02:45:34;96371.69;;;5.48;100.00
34328;BME280;20588;48.840;10.064;2023-04-07T02:48:00;96371.69;;;5.48;100.00
34328;BME280;20588;48.840;10.064;2023-04-07T02:50:26;96369.38;;;5.53;100.00
34328;BME280;20588;48.840;10.064;2023-04-07T02:52:53;96369.94;;;5.70;100.00
34328;BME280;20588;48.840;10.064;2023-04-07T02:55:19;96368.78;;;5.51;100.00
34328;BME280;20588;48.840;10.064;2023-04-07T02:57:45;96366.84;;;5.53;100.00
34328;BME280;20588;48.840;10.064;2023-04-07T03:00:13;96363.44;;;5.46;100.00
34328;BME280;20588;48.840;10.064;2023-04-07T03:02:39;96354.72;;;5.41;100.00
34328;BME280;20588;48.840;10.064;2023-04-07T03:05:05;96363.97;;;5.42;100.00
34328;BME280;20588;48.840;10.064;2023-04-07T03:07:31;96359.00;;;5.76;100.00
34328;BME280;20588;48.840;10.064;2023-04-07T03:09:57;96353.69;;;5.78;100.00
34328;BME280;20588;48.840;10.064;2023-04-07T03:12:23;96356.50;;;5.62;100.00
34328;BME280;20588;48.840;10.064;2023-04-07T03:14:49;96351.34;;;5.55;100.00
34328;BME280;20588;48.840;10.064;2023-04-07T03:17:15;96348.78;;;5.76;100.00
34328;BME280;20588;48.840;10.064;2023-04-07T03:19:41;96350.34;;;5.56;100.00
34328;BME280;20588;48.840;10.064;2023-04-07T03:22:07;96344.84;;;5.74;100.00
34328;BME280;20588;48.840;10.064;2023-04-07T03:24:33;96341.66;;;5.72;100.00
34328;BME280;20588;48.840;10.064;2023-04-07T03:27:00;96343.13;;;5.81;100.00
34328;BME280;20588;48.840;10.064;2023-04-07T03:29:27;96336.81;;;5.98;98.67
34328;BME280;20588;48.840;10.064;2023-04-07T03:31:53;96330.13;;;5.97;99.28
34328;BME280;20588;48.840;10.064;2023-04-07T03:34:19;96326.22;;;5.80;99.98
34328;BME280;20588;48.840;10.064;2023-04-07T03:36:45;96330.47;;;5.73;100.00
34328;BME280;20588;48.840;10.064;2023-04-07T03:39:11;96330.09;;;5.76;100.00
34328;BME280;20588;48.840;10.064;2023-04-07T03:41:37;96331.25;;;5.88;99.79
34328;BME280;20588;48.840;10.064;2023-04-07T03:44:03;96324.41;;;5.74;100.00
34328;BME280;20588;48.840;10.064;2023-04-07T03:46:30;96349.06;;;6.09;99.83
34328;BME280;20588;48.840;10.064;2023-04-07T03:48:56;96322.69;;;5.81;100.00
34328;BME280;20588;48.840;10.064;2023-04-07T03:51:22;96325.53;;;5.86;100.00
34328;BME280;20588;48.840;10.064;2023-04-07T03:53:48;96329.16;;;5.98;100.00
34328;BME280;20588;48.840;10.064;2023-04-07T03:56:14;96328.91;;;5.93;100.00
34328;BME280;20588;48.840;10.064;2023-04-07T03:58:40;96321.97;;;5.87;100.00
34328;BME280;20588;48.840;10.064;2023-04-07T04:01:07;96321.06;;;5.73;100.00
34328;BME280;20588;48.840;10.064;2023-04-07T04:03:34;96318.88;;;5.91;100.00
34328;BME280;20588;48.840;10.064;2023-04-07T04:06:00;96320.31;;;6.00;99.67
34328;BME280;20588;48.840;10.064;2023-04-07T04:08:26;96308.28;;;5.94;100.00
34328;BME280;20588;48.840;10.064;2023-04-07T04:10:52;96305.16;;;5.92;99.89
34328;BME280;20588;48.840;10.064;2023-04-07T04:13:18;96316.22;;;5.78;100.00
34328;BME280;20588;48.840;10.064;2023-04-07T04:15:44;96302.00;;;5.69;100.00
34328;BME280;20588;48.840;10.064;2023-04-07T04:18:10;96300.88;;;5.78;100.00
34328;BME280;20588;48.840;10.064;2023-04-07T04:20:36;96304.72;;;5.89;100.00
34328;BME280;20588;48.840;10.064;2023-04-07T04:23:03;96296.69;;;5.92;100.00
34328;BME280;20588;48.840;10.064;2023-04-07T04:25:29;96300.09;;;5.78;100.00
34328;BME280;20588;48.840;10.064;2023-04-07T04:27:55;96293.53;;;5.90;100.00
34328;BME280;20588;48.840;10.064;2023-04-07T04:30:21;96295.00;;;5.78;100.00
34328;BME280;20588;48.840;10.064;2023-04-07T04:32:47;96297.72;;;5.76;100.00
34328;BME280;20588;48.840;10.064;2023-04-07T04:35:14;96301.47;;;5.80;100.00
34328;BME280;20588;48.840;10.064;2023-04-07T04:37:40;96299.72;;;5.81;100.00
34328;BME280;20588;48.840;10.064;2023-04-07T04:40:07;96301.03;;;5.70;100.00
34328;BME280;20588;48.840;10.064;2023-04-07T04:42:33;96299.25;;;5.71;100.00
34328;BME280;20588;48.840;10.064;2023-04-07T04:45:00;96298.91;;;5.74;100.00
34328;BME280;20588;48.840;10.064;2023-04-07T04:47:26;96298.41;;;5.85;100.00
34328;BME280;20588;48.840;10.064;2023-04-07T04:49:52;96301.00;;;5.91;100.00
34328;BME280;20588;48.840;10.064;2023-04-07T04:52:18;96306.44;;;5.82;100.00
34328;BME280;20588;48.840;10.064;2023-04-07T04:54:44;96303.25;;;5.80;100.00
34328;BME280;20588;48.840;10.064;2023-04-07T04:57:10;96306.00;;;5.78;100.00
34328;BME280;20588;48.840;10.064;2023-04-07T04:59:36;96309.31;;;5.79;100.00
34328;BME280;20588;48.840;10.064;2023-04-07T05:02:02;96309.13;;;5.80;100.00
34328;BME280;20588;48.840;10.064;2023-04-07T05:04:28;96314.94;;;5.89;100.00
34328;BME280;20588;48.840;10.064;2023-04-07T05:06:54;96310.25;;;5.92;100.00
34328;BME280;20588;48.840;10.064;2023-04-07T05:09:20;96308.84;;;5.90;100.00
34328;BME280;20588;48.840;10.064;2023-04-07T05:11:46;96311.88;;;6.00;100.00
34328;BME280;20588;48.840;10.064;2023-04-07T05:14:13;96311.88;;;6.00;100.00
34328;BME280;20588;48.840;10.064;2023-04-07T05:16:39;96310.66;;;5.96;100.00
34328;BME280;20588;48.840;10.064;2023-04-07T05:19:05;96315.69;;;6.10;100.00
34328;BME280;20588;48.840;10.064;2023-04-07T05:21:31;96312.09;;;6.05;100.00
34328;BME280;20588;48.840;10.064;2023-04-07T05:23:57;96306.25;;;6.11;100.00
34328;BME280;20588;48.840;10.064;2023-04-07T05:26:23;96302.75;;;6.18;100.00
34328;BME280;20588;48.840;10.064;2023-04-07T05:28:49;96296.81;;;6.11;100.00
34328;BME280;20588;48.840;10.064;2023-04-07T05:31:15;96306.47;;;6.16;100.00
34328;BME280;20588;48.840;10.064;2023-04-07T05:33:41;96302.75;;;6.18;100.00
34328;BME280;20588;48.840;10.064;2023-04-07T05:36:07;96310.03;;;6.21;100.00
34328;BME280;20588;48.840;10.064;2023-04-07T05:38:33;96313.00;;;6.25;100.00
34328;BME280;20588;48.840;10.064;2023-04-07T05:41:00;96312.78;;;6.20;100.00
34328;BME280;20588;48.840;10.064;2023-04-07T05:43:26;96315.13;;;6.21;100.00
34328;BME280;20588;48.840;10.064;2023-04-07T05:45:52;96316.56;;;6.24;100.00
34328;BME280;20588;48.840;10.064;2023-04-07T05:48:18;96306.91;;;6.19;100.00
34328;BME280;20588;48.840;10.064;2023-04-07T05:50:44;96308.66;;;6.19;100.00
34328;BME280;20588;48.840;10.064;2023-04-07T05:53:10;96296.06;;;6.17;100.00
34328;BME280;20588;48.840;10.064;2023-04-07T05:55:36;96302.59;;;6.26;100.00
34328;BME280;20588;48.840;10.064;2023-04-07T05:58:02;96297.44;;;6.20;100.00
34328;BME280;20588;48.840;10.064;2023-04-07T06:00:29;96296.44;;;6.14;100.00
34328;BME280;20588;48.840;10.064;2023-04-07T06:02:55;96299.75;;;6.08;100.00
34328;BME280;20588;48.840;10.064;2023-04-07T06:05:21;96298.38;;;6.06;100.00
34328;BME280;20588;48.840;10.064;2023-04-07T06:07:47;96302.19;;;6.23;100.00
34328;BME280;20588;48.840;10.064;2023-04-07T06:10:14;96296.13;;;6.30;100.00
34328;BME280;20588;48.840;10.064;2023-04-07T06:12:40;96304.47;;;6.11;100.00
34328;BME280;20588;48.840;10.064;2023-04-07T06:15:07;96298.47;;;6.25;100.00
34328;BME280;20588;48.840;10.064;2023-04-07T06:17:33;96291.78;;;6.24;100.00
34328;BME280;20588;48.840;10.064;2023-04-07T06:19:59;96292.81;;;6.30;100.00
34328;BME280;20588;48.840;10.064;2023-04-07T06:22:25;96295.00;;;6.39;100.00
34328;BME280;20588;48.840;10.064;2023-04-07T06:24:51;96302.38;;;6.55;100.00
34328;BME280;20588;48.840;10.064;2023-04-07T06:27:17;96299.91;;;6.81;100.00
34328;BME280;20588;48.840;10.064;2023-04-07T06:29:43;96303.38;;;6.61;100.00
34328;BME280;20588;48.840;10.064;2023-04-07T06:32:10;96299.72;;;6.83;100.00
34328;BME280;20588;48.840;10.064;2023-04-07T06:34:36;96302.59;;;6.67;100.00
34328;BME280;20588;48.840;10.064;2023-04-07T06:37:02;96300.50;;;6.77;100.00
34328;BME280;20588;48.840;10.064;2023-04-07T06:39:30;96295.53;;;6.69;100.00
34328;BME280;20588;48.840;10.064;2023-04-07T06:41:56;96297.06;;;6.57;100.00
34328;BME280;20588;48.840;10.064;2023-04-07T06:44:22;96294.47;;;6.50;100.00
34328;BME280;20588;48.840;10.064;2023-04-07T06:46:48;96304.88;;;6.49;100.00
34328;BME280;20588;48.840;10.064;2023-04-07T06:49:18;96295.47;;;6.49;100.00
34328;BME280;20588;48.840;10.064;2023-04-07T06:51:45;96296.66;;;6.53;100.00
34328;BME280;20588;48.840;10.064;2023-04-07T06:54:11;96298.84;;;6.63;100.00
34328;BME280;20588;48.840;10.064;2023-04-07T06:56:39;96295.53;;;6.69;100.00
34328;BME280;20588;48.840;10.064;2023-04-07T06:59:06;96301.44;;;6.76;100.00
34328;BME280;20588;48.840;10.064;2023-04-07T07:01:32;96301.84;;;6.73;100.00
34328;BME280;20588;48.840;10.064;2023-04-07T07:03:59;96304.19;;;6.74;100.00
34328;BME280;20588;48.840;10.064;2023-04-07T07:06:26;96297.75;;;6.78;100.00
34328;BME280;20588;48.840;10.064;2023-04-07T07:08:52;96298.91;;;6.76;100.00
34328;BME280;20588;48.840;10.064;2023-04-07T07:11:19;96302.25;;;6.76;100.00
34328;BME280;20588;48.840;10.064;2023-04-07T07:13:45;96308.56;;;6.80;100.00
34328;BME280;20588;48.840;10.064;2023-04-07T07:16:12;96303.47;;;6.87;100.00
34328;BME280;20588;48.840;10.064;2023-04-07T07:18:38;96299.16;;;6.94;100.00
34328;BME280;20588;48.840;10.064;2023-04-07T07:21:04;96304.16;;;7.28;100.00
34328;BME280;20588;48.840;10.064;2023-04-07T07:23:30;96307.72;;;7.33;100.00
34328;BME280;20588;48.840;10.064;2023-04-07T07:25:57;96298.28;;;7.47;100.00
34328;BME280;20588;48.840;10.064;2023-04-07T07:28:23;96306.38;;;7.70;100.00
34328;BME280;20588;48.840;10.064;2023-04-07T07:30:49;96305.56;;;7.89;100.00
34328;BME280;20588;48.840;10.064;2023-04-07T07:33:15;96295.50;;;8.14;100.00
34328;BME280;20588;48.840;10.064;2023-04-07T07:35:41;96309.88;;;8.34;100.00
34328;BME280;20588;48.840;10.064;2023-04-07T07:38:07;96304.50;;;8.49;100.00
34328;BME280;20588;48.840;10.064;2023-04-07T07:40:33;96308.63;;;8.63;99.52
34328;BME280;20588;48.840;10.064;2023-04-07T07:42:59;96306.19;;;8.74;96.18
34328;BME280;20588;48.840;10.064;2023-04-07T07:45:26;96311.53;;;8.66;94.36
34328;BME280;20588;48.840;10.064;2023-04-07T07:47:52;96314.50;;;8.63;94.97
34328;BME280;20588;48.840;10.064;2023-04-07T07:50:18;96315.03;;;8.78;91.46
34328;BME280;20588;48.840;10.064;2023-04-07T07:52:44;96316.50;;;8.61;91.15
34328;BME280;20588;48.840;10.064;2023-04-07T07:55:10;96317.25;;;8.75;89.07
34328;BME280;20588;48.840;10.064;2023-04-07T07:57:36;96315.53;;;8.56;91.22
34328;BME280;20588;48.840;10.064;2023-04-07T08:00:03;96316.50;;;8.61;93.30
34328;BME280;20588;48.840;10.064;2023-04-07T08:02:29;96310.97;;;8.64;93.24
34328;BME280;20588;48.840;10.064;2023-04-07T08:04:57;96316.44;;;8.74;93.32
34328;BME280;20588;48.840;10.064;2023-04-07T08:07:23;96317.22;;;8.81;92.94
34328;BME280;20588;48.840;10.064;2023-04-07T08:09:49;96313.25;;;8.85;93.22
34328;BME280;20588;48.840;10.064;2023-04-07T08:12:15;96315.97;;;8.97;93.74
34328;BME280;20588;48.840;10.064;2023-04-07T08:14:41;96315.72;;;9.11;90.08
34328;BME280;20588;48.840;10.064;2023-04-07T08:17:07;96325.06;;;8.93;89.88
34328;BME280;20588;48.840;10.064;2023-04-07T08:19:33;96328.06;;;8.77;90.46
34328;BME280;20588;48.840;10.064;2023-04-07T08:21:59;96328.06;;;8.77;92.24
34328;BME280;20588;48.840;10.064;2023-04-07T08:24:27;96328.44;;;8.87;93.25
34328;BME280;20588;48.840;10.064;2023-04-07T08:26:53;96331.94;;;8.99;91.49
34328;BME280;20588;48.840;10.064;2023-04-07T08:29:19;96331.53;;;9.08;90.71
34328;BME280;20588;48.840;10.064;2023-04-07T08:31:45;96327.66;;;9.24;90.04
34328;BME280;20588;48.840;10.064;2023-04-07T08:34:12;96325.03;;;9.37;90.42
34328;BME280;20588;48.840;10.064;2023-04-07T08:36:38;96327.06;;;9.60;91.10
34328;BME280;20588;48.840;10.064;2023-04-07T08:39:04;96326.28;;;9.84;91.63
34328;BME280;20588;48.840;10.064;2023-04-07T08:41:37;96324.53;;;9.84;87.44
34328;BME280;20588;48.840;10.064;2023-04-07T08:44:04;96328.28;;;10.06;85.28
34328;BME280;20588;48.840;10.064;2023-04-07T08:46:33;96321.75;;;9.86;85.01
34328;BME280;20588;48.840;10.064;2023-04-07T08:49:00;96323.94;;;9.82;84.90
34328;BME280;20588;48.840;10.064;2023-04-07T08:51:27;96320.22;;;9.78;85.86
34328;BME280;20588;48.840;10.064;2023-04-07T08:53:57;96322.47;;;9.93;88.42
34328;BME280;20588;48.840;10.064;2023-04-07T08:56:26;96328.56;;;9.74;84.96
34328;BME280;20588;48.840;10.064;2023-04-07T08:58:52;96326.50;;;9.82;85.76
34328;BME280;20588;48.840;10.064;2023-04-07T09:01:19;96331.91;;;9.99;85.12
34328;BME280;20588;48.840;10.064;2023-04-07T09:03:46;96334.53;;;10.17;85.31
34328;BME280;20588;48.840;10.064;2023-04-07T09:06:13;96328.69;;;10.03;82.78
34328;BME280;20588;48.840;10.064;2023-04-07T09:08:40;96340.09;;;10.14;82.35
34328;BME280;20588;48.840;10.064;2023-04-07T09:11:06;96327.28;;;10.32;83.15
34328;BME280;20588;48.840;10.064;2023-04-07T09:13:32;96330.44;;;10.34;80.71
34328;BME280;20588;48.840;10.064;2023-04-07T09:16:01;96323.75;;;10.69;81.42
34328;BME280;20588;48.840;10.064;2023-04-07T09:18:28;96325.25;;;11.06;79.79
34328;BME280;20588;48.840;10.064;2023-04-07T09:21:04;96336.03;;;11.33;78.76
34328;BME280;20588;48.840;10.064;2023-04-07T09:23:38;96325.50;;;11.64;73.62
34328;BME280;20588;48.840;10.064;2023-04-07T09:26:23;96321.28;;;11.51;77.82
34328;BME280;20588;48.840;10.064;2023-04-07T09:29:00;96326.91;;;11.60;76.29
34328;BME280;20588;48.840;10.064;2023-04-07T09:31:48;96329.91;;;11.75;74.32
34328;BME280;20588;48.840;10.064;2023-04-07T09:34:30;96322.16;;;11.86;73.48
34328;BME280;20588;48.840;10.064;2023-04-07T09:36:57;96324.78;;;11.98;73.78
34328;BME280;20588;48.840;10.064;2023-04-07T09:39:24;96328.25;;;12.15;73.35
34328;BME280;20588;48.840;10.064;2023-04-07T09:41:50;96331.38;;;12.28;73.76
34328;BME280;20588;48.840;10.064;2023-04-07T09:44:17;96329.13;;;12.55;74.05
34328;BME280;20588;48.840;10.064;2023-04-07T09:46:58;96331.47;;;12.80;73.40
34328;BME280;20588;48.840;10.064;2023-04-07T09:49:25;96329.03;;;13.13;73.33
34328;BME280;20588;48.840;10.064;2023-04-07T09:51:58;96324.16;;;13.28;71.19
34328;BME280;20588;48.840;10.064;2023-04-07T09:54:36;96333.59;;;13.50;69.62
34328;BME280;20588;48.840;10.064;2023-04-07T09:57:04;96332.78;;;13.78;68.99
34328;BME280;20588;48.840;10.064;2023-04-07T09:59:32;96330.34;;;13.88;67.24
34328;BME280;20588;48.840;10.064;2023-04-07T10:01:58;96333.09;;;14.14;66.05
34328;BME280;20588;48.840;10.064;2023-04-07T10:04:25;96326.09;;;14.48;65.15
34328;BME280;20588;48.840;10.064;2023-04-07T10:06:52;96326.69;;;14.72;63.76
34328;BME280;20588;48.840;10.064;2023-04-07T10:09:21;96328.59;;;15.03;60.77
34328;BME280;20588;48.840;10.064;2023-04-07T10:11:50;96328.81;;;15.44;59.91
34328;BME280;20588;48.840;10.064;2023-04-07T10:14:18;96327.31;;;15.48;56.18
34328;BME280;20588;48.840;10.064;2023-04-07T10:16:46;96327.06;;;15.76;57.27
34328;BME280;20588;48.840;10.064;2023-04-07T10:19:13;96329.84;;;16.01;58.26
34328;BME280;20588;48.840;10.064;2023-04-07T10:21:42;96335.09;;;16.43;57.06
34328;BME280;20588;48.840;10.064;2023-04-07T10:27:00;96341.56;;;16.82;53.98
34328;BME280;20588;48.840;10.064;2023-04-07T10:29:31;96331.06;;;16.62;53.51
34328;BME280;20588;48.840;10.064;2023-04-07T10:32:00;96334.38;;;16.48;52.89
34328;BME280;20588;48.840;10.064;2023-04-07T10:37:18;96337.69;;;16.06;54.62
34328;BME280;20588;48.840;10.064;2023-04-07T10:39:47;96333.69;;;15.94;55.86
34328;BME280;20588;48.840;10.064;2023-04-07T10:45:05;96350.41;;;15.28;55.27
34328;BME280;20588;48.840;10.064;2023-04-07T10:47:32;96345.28;;;15.12;55.70
34328;BME280;20588;48.840;10.064;2023-04-07T10:50:17;96341.28;;;14.99;57.08
34328;BME280;20588;48.840;10.064;2023-04-07T10:52:45;96340.63;;;15.35;57.55
34328;BME280;20588;48.840;10.064;2023-04-07T10:55:31;96336.44;;;15.82;57.68
34328;BME280;20588;48.840;10.064;2023-04-07T10:58:21;96332.38;;;16.28;54.12
34328;BME280;20588;48.840;10.064;2023-04-07T11:03:57;96338.34;;;17.22;53.81
34328;BME280;20588;48.840;10.064;2023-04-07T11:06:23;96344.84;;;17.24;52.76
34328;BME280;20588;48.840;10.064;2023-04-07T11:08:51;96345.84;;;17.08;52.06
34328;BME280;20588;48.840;10.064;2023-04-07T11:11:35;96345.34;;;16.65;50.95
34328;BME280;20588;48.840;10.064;2023-04-07T11:14:04;96339.81;;;16.14;52.67
34328;BME280;20588;48.840;10.064;2023-04-07T11:16:38;96344.84;;;15.94;53.97
34328;BME280;20588;48.840;10.064;2023-04-07T11:19:05;96342.63;;;15.50;55.86
34328;BME280;20588;48.840;10.064;2023-04-07T11:21:31;96346.56;;;15.09;57.29
34328;BME280;20588;48.840;10.064;2023-04-07T11:23:57;96341.69;;;14.91;58.94
34328;BME280;20588;48.840;10.064;2023-04-07T11:26:23;96349.56;;;15.01;60.30
34328;BME280;20588;48.840;10.064;2023-04-07T11:28:51;96344.56;;;15.16;59.13
34328;BME280;20588;48.840;10.064;2023-04-07T11:31:25;96342.19;;;15.36;57.95
34328;BME280;20588;48.840;10.064;2023-04-07T11:34:00;96346.53;;;15.79;57.59
34328;BME280;20588;48.840;10.064;2023-04-07T11:36:36;96342.63;;;16.08;56.51
34328;BME280;20588;48.840;10.064;2023-04-07T11:39:03;96339.56;;;16.48;55.60
34328;BME280;20588;48.840;10.064;2023-04-07T11:41:31;96345.28;;;17.01;54.18
34328;BME280;20588;48.840;10.064;2023-04-07T11:44:08;96342.56;;;17.48;52.53
34328;BME280;20588;48.840;10.064;2023-04-07T11:46:35;96346.00;;;17.78;50.07
34328;BME280;20588;48.840;10.064;2023-04-07T11:49:12;96337.44;;;17.98;48.73
34328;BME280;20588;48.840;10.064;2023-04-07T11:51:39;96343.19;;;18.05;47.83
34328;BME280;20588;48.840;10.064;2023-04-07T11:54:05;96349.66;;;18.18;47.16
34328;BME280;20588;48.840;10.064;2023-04-07T11:56:45;96346.00;;;17.68;47.47
34328;BME280;20588;48.840;10.064;2023-04-07T11:59:22;96343.75;;;17.10;49.50
34328;BME280;20588;48.840;10.064;2023-04-07T12:01:49;96343.84;;;16.32;51.78
34328;BME280;20588;48.840;10.064;2023-04-07T12:04:15;96351.56;;;16.59;50.83
34328;BME280;20588;48.840;10.064;2023-04-07T12:06:44;96342.91;;;16.48;50.79
34328;BME280;20588;48.840;10.064;2023-04-07T12:09:26;96338.53;;;17.10;51.64
34328;BME280;20588;48.840;10.064;2023-04-07T12:11:52;96342.13;;;17.91;50.75
34328;BME280;20588;48.840;10.064;2023-04-07T12:14:18;96340.56;;;18.05;48.51
34328;BME280;20588;48.840;10.064;2023-04-07T12:16:44;96338.47;;;18.42;48.77
34328;BME280;20588;48.840;10.064;2023-04-07T12:19:10;96341.28;;;18.71;48.04
34328;BME280;20588;48.840;10.064;2023-04-07T12:21:37;96340.00;;;18.73;46.70
34328;BME280;20588;48.840;10.064;2023-04-07T12:24:03;96337.16;;;18.50;45.94
34328;BME280;20588;48.840;10.064;2023-04-07T12:26:29;96334.53;;;18.30;46.00
34328;BME280;20588;48.840;10.064;2023-04-07T12:28:55;96336.13;;;18.46;46.85
34328;BME280;20588;48.840;10.064;2023-04-07T12:31:23;96329.59;;;18.48;47.04
34328;BME280;20588;48.840;10.064;2023-04-07T12:33:50;96328.03;;;18.57;48.00
34328;BME280;20588;48.840;10.064;2023-04-07T12:36:16;96337.88;;;18.75;47.38
34328;BME280;20588;48.840;10.064;2023-04-07T12:38:42;96329.56;;;18.73;47.60
34328;BME280;20588;48.840;10.064;2023-04-07T12:41:08;96330.81;;;18.86;47.96
34328;BME280;20588;48.840;10.064;2023-04-07T12:43:34;96330.28;;;18.89;47.31
34328;BME280;20588;48.840;10.064;2023-04-07T12:46:00;96338.41;;;18.82;47.73
34328;BME280;20588;48.840;10.064;2023-04-07T12:48:26;96322.44;;;18.99;47.13
34328;BME280;20588;48.840;10.064;2023-04-07T12:50:52;96320.00;;;19.17;46.07
34328;BME280;20588;48.840;10.064;2023-04-07T12:53:18;96318.19;;;19.13;46.61
34328;BME280;20588;48.840;10.064;2023-04-07T12:55:45;96321.53;;;18.60;44.30
34328;BME280;20588;48.840;10.064;2023-04-07T12:58:12;96322.81;;;18.67;46.35
34328;BME280;20588;48.840;10.064;2023-04-07T13:00:38;96319.63;;;18.80;47.01
34328;BME280;20588;48.840;10.064;2023-04-07T13:03:04;96314.34;;;18.95;47.24
34328;BME280;20588;48.840;10.064;2023-04-07T13:05:30;96314.25;;;19.15;46.53
34328;BME280;20588;48.840;10.064;2023-04-07T13:07:56;96315.53;;;19.23;45.96
34328;BME280;20588;48.840;10.064;2023-04-07T13:10:22;96316.22;;;19.43;46.00
34328;BME280;20588;48.840;10.064;2023-04-07T13:12:48;96311.09;;;19.28;44.10